sensor_id;sensor_type;location;lat;lon;timestamp;P1;durP1;ratioP1;P2;durP2;ratioP2
7573;SDS011;3828;48.922;9.116;2022-09-01T00:02:01;6.50;;;6.00;;
7573;SDS011;3828;48.922;9.116;2022-09-01T00:04:34;7.50;;;6.87;;
7573;SDS011;3828;48.922;9.116;2022-09-01T00:07:04;7.73;;;7.13;;
7573;SDS011;3828;48.922;9.116;2022-09-01T00:09:31;8.30;;;7.50;;
7573;SDS011;3828;48.922;9.116;2022-09-01T00:11:59;8.03;;;6.83;;
7573;SDS011;3828;48.922;9.116;2022-09-01T00:14:29;7.37;;;6.77;;
7573;SDS011;3828;48.922;9.116;2022-09-01T00:16:58;6.43;;;5.93;;
7573;SDS011;3828;48.922;9.116;2022-09-01T00:19:27;6.83;;;6.23;;
7573;SDS011;3828;48.922;9.116;2022-09-01T00:21:55;7.03;;;6.33;;
7573;SDS011;3828;48.922;9.116;2022-09-01T00:24:24;7.30;;;6.60;;
7573;SDS011;3828;48.922;9.116;2022-09-01T00:26:52;6.57;;;5.97;;
7573;SDS011;3828;48.922;9.116;2022-09-01T00:29:24;7.80;;;7.10;;
7573;SDS011;3828;48.922;9.116;2022-09-01T00:31:51;8.23;;;7.53;;
7573;SDS011;3828;48.922;9.116;2022-09-01T00:34:20;8.30;;;7.57;;
7573;SDS011;3828;48.922;9.116;2022-09-01T00:36:47;9.20;;;8.30;;
7573;SDS011;3828;48.922;9.116;2022-09-01T00:39:14;8.47;;;7.77;;
7573;SDS011;3828;48.922;9.116;2022-09-01T00:41:43;9.97;;;8.00;;
7573;SDS011;3828;48.922;9.116;2022-09-01T00:44:12;9.83;;;8.30;;
7573;SDS011;3828;48.922;9.116;2022-09-01T00:46:41;9.07;;;8.27;;
7573;SDS011;3828;48.922;9.116;2022-09-01T00:49:11;7.93;;;7.33;;
7573;SDS011;3828;48.922;9.116;2022-09-01T00:51:41;7.40;;;6.70;;
7573;SDS011;3828;48.922;9.116;2022-09-01T00:54:19;8.13;;;7.40;;
7573;SDS011;3828;48.922;9.116;2022-09-01T00:56:49;7.43;;;6.73;;
7573;SDS011;3828;48.922;9.116;2022-09-01T00:59:18;6.83;;;6.33;;
7573;SDS011;3828;48.922;9.116;2022-09-01T01:01:47;8.07;;;7.37;;
7573;SDS011;3828;48.922;9.116;2022-09-01T01:04:14;7.53;;;6.83;;
7573;SDS011;3828;48.922;9.116;2022-09-01T01:06:41;8.20;;;7.50;;
7573;SDS011;3828;48.922;9.116;2022-09-01T01:09:13;8.33;;;7.63;;
7573;SDS011;3828;48.922;9.116;2022-09-01T01:11:41;6.93;;;6.33;;
7573;SDS011;3828;48.922;9.116;2022-09-01T01:14:15;7.80;;;7.00;;
7573;SDS011;3828;48.922;9.116;2022-09-01T01:16:48;8.40;;;7.60;;
7573;SDS011;3828;48.922;9.116;2022-09-01T01:19:18;8.23;;;7.47;;
7573;SDS011;3828;48.922;9.116;2022-09-01T01:22:09;6.73;;;6.10;;
7573;SDS011;3828;48.922;9.116;2022-09-01T01:25:02;7.27;;;6.67;;
7573;SDS011;3828;48.922;9.116;2022-09-01T01:27:30;7.50;;;6.87;;
7573;SDS011;3828;48.922;9.116;2022-09-01T01:29:59;9.27;;;8.30;;
7573;SDS011;3828;48.922;9.116;2022-09-01T01:32:26;8.33;;;7.63;;
7573;SDS011;3828;48.922;9.116;2022-09-01T01:34:53;8.33;;;7.63;;
7573;SDS011;3828;48.922;9.116;2022-09-01T01:37:20;8.13;;;7.43;;
7573;SDS011;3828;48.922;9.116;2022-09-01T01:39:49;8.77;;;7.97;;
7573;SDS011;3828;48.922;9.116;2022-09-01T01:42:18;7.30;;;6.70;;
7573;SDS011;3828;48.922;9.116;2022-09-01T01:44:48;8.33;;;7.67;;
7573;SDS011;3828;48.922;9.116;2022-09-01T01:47:14;8.50;;;7.70;;
7573;SDS011;3828;48.922;9.116;2022-09-01T01:49:44;8.27;;;7.53;;
7573;SDS011;3828;48.922;9.116;2022-09-01T01:52:11;7.07;;;6.47;;
7573;SDS011;3828;48.922;9.116;2022-09-01T01:54:41;8.03;;;7.33;;
7573;SDS011;3828;48.922;9.116;2022-09-01T01:57:10;7.90;;;7.20;;
7573;SDS011;3828;48.922;9.116;2022-09-01T01:59:43;7.50;;;6.90;;
7573;SDS011;3828;48.922;9.116;2022-09-01T02:02:10;8.87;;;8.13;;
7573;SDS011;3828;48.922;9.116;2022-09-01T02:04:37;7.83;;;7.13;;
7573;SDS011;3828;48.922;9.116;2022-09-01T02:07:07;8.00;;;7.30;;
7573;SDS011;3828;48.922;9.116;2022-09-01T02:09:36;8.23;;;7.53;;
7573;SDS011;3828;48.922;9.116;2022-09-01T02:12:05;8.13;;;7.33;;
7573;SDS011;3828;48.922;9.116;2022-09-01T02:14:33;8.90;;;8.20;;
7573;SDS011;3828;48.922;9.116;2022-09-01T02:17:01;9.07;;;8.30;;
7573;SDS011;3828;48.922;9.116;2022-09-01T02:19:30;8.93;;;7.87;;
7573;SDS011;3828;48.922;9.116;2022-09-01T02:21:57;8.23;;;7.53;;
7573;SDS011;3828;48.922;9.116;2022-09-01T02:24:24;7.93;;;7.20;;
7573;SDS011;3828;48.922;9.116;2022-09-01T02:26:55;9.37;;;8.47;;
7573;SDS011;3828;48.922;9.116;2022-09-01T02:29:22;8.63;;;7.93;;
7573;SDS011;3828;48.922;9.116;2022-09-01T02:31:52;9.27;;;8.27;;
7573;SDS011;3828;48.922;9.116;2022-09-01T02:34:23;8.97;;;8.17;;
7573;SDS011;3828;48.922;9.116;2022-09-01T02:36:52;8.70;;;7.80;;
7573;SDS011;3828;48.922;9.116;2022-09-01T02:39:20;9.03;;;8.23;;
7573;SDS011;3828;48.922;9.116;2022-09-01T02:41:49;8.27;;;7.67;;
7573;SDS011;3828;48.922;9.116;2022-09-01T02:44:16;9.17;;;8.27;;
7573;SDS011;3828;48.922;9.116;2022-09-01T02:46:43;7.10;;;6.50;;
7573;SDS011;3828;48.922;9.116;2022-09-01T02:49:12;9.33;;;8.43;;
7573;SDS011;3828;48.922;9.116;2022-09-01T02:51:45;8.37;;;7.50;;
7573;SDS011;3828;48.922;9.116;2022-09-01T02:54:16;9.20;;;8.40;;
7573;SDS011;3828;48.922;9.116;2022-09-01T02:56:43;8.93;;;8.13;;
7573;SDS011;3828;48.922;9.116;2022-09-01T02:59:12;7.73;;;7.10;;
7573;SDS011;3828;48.922;9.116;2022-09-01T03:01:39;9.03;;;8.23;;
7573;SDS011;3828;48.922;9.116;2022-09-01T03:04:07;7.90;;;7.10;;
7573;SDS011;3828;48.922;9.116;2022-09-01T03:06:36;8.37;;;7.47;;
7573;SDS011;3828;48.922;9.116;2022-09-01T03:09:06;8.60;;;7.80;;
7573;SDS011;3828;48.922;9.116;2022-09-01T03:11:36;8.37;;;7.67;;
7573;SDS011;3828;48.922;9.116;2022-09-01T03:14:04;8.83;;;8.00;;
7573;SDS011;3828;48.922;9.116;2022-09-01T03:16:32;8.30;;;7.60;;
7573;SDS011;3828;48.922;9.116;2022-09-01T03:19:00;9.87;;;8.97;;
7573;SDS011;3828;48.922;9.116;2022-09-01T03:21:28;10.07;;;9.17;;
7573;SDS011;3828;48.922;9.116;2022-09-01T03:23:56;10.03;;;9.13;;
7573;SDS011;3828;48.922;9.116;2022-09-01T03:26:27;9.50;;;8.60;;
7573;SDS011;3828;48.922;9.116;2022-09-01T03:28:55;10.97;;;9.97;;
7573;SDS011;3828;48.922;9.116;2022-09-01T03:31:23;10.77;;;9.80;;
7573;SDS011;3828;48.922;9.116;2022-09-01T03:33:51;9.57;;;8.77;;
7573;SDS011;3828;48.922;9.116;2022-09-01T03:36:21;10.30;;;9.17;;
7573;SDS011;3828;48.922;9.116;2022-09-01T03:38:50;9.53;;;8.63;;
7573;SDS011;3828;48.922;9.116;2022-09-01T03:41:18;10.07;;;9.17;;
7573;SDS011;3828;48.922;9.116;2022-09-01T03:43:48;9.77;;;8.80;;
7573;SDS011;3828;48.922;9.116;2022-09-01T03:46:15;9.60;;;8.77;;
7573;SDS011;3828;48.922;9.116;2022-09-01T03:48:45;9.23;;;8.43;;
7573;SDS011;3828;48.922;9.116;2022-09-01T03:51:14;10.63;;;9.67;;
7573;SDS011;3828;48.922;9.116;2022-09-01T03:53:41;9.93;;;9.13;;
7573;SDS011;3828;48.922;9.116;2022-09-01T03:56:10;10.70;;;9.80;;
7573;SDS011;3828;48.922;9.116;2022-09-01T03:58:39;9.73;;;8.83;;
7573;SDS011;3828;48.922;9.116;2022-09-01T04:01:12;12.03;;;10.37;;
7573;SDS011;3828;48.922;9.116;2022-09-01T04:03:40;9.87;;;8.97;;
7573;SDS011;3828;48.922;9.116;2022-09-01T04:06:09;10.60;;;9.60;;
7573;SDS011;3828;48.922;9.116;2022-09-01T04:08:36;10.03;;;9.13;;
7573;SDS011;3828;48.922;9.116;2022-09-01T04:11:08;9.83;;;8.93;;
7573;SDS011;3828;48.922;9.116;2022-09-01T04:13:41;9.63;;;8.77;;
7573;SDS011;3828;48.922;9.116;2022-09-01T04:19:12;10.30;;;9.30;;
7573;SDS011;3828;48.922;9.116;2022-09-01T04:21:44;9.80;;;8.93;;
7573;SDS011;3828;48.922;9.116;2022-09-01T04:24:11;10.10;;;9.07;;
7573;SDS011;3828;48.922;9.116;2022-09-01T04:29:31;10.13;;;8.77;;
7573;SDS011;3828;48.922;9.116;2022-09-01T04:32:00;9.50;;;8.70;;
7573;SDS011;3828;48.922;9.116;2022-09-01T04:34:32;9.73;;;8.83;;
7573;SDS011;3828;48.922;9.116;2022-09-01T04:37:02;9.77;;;8.87;;
7573;SDS011;3828;48.922;9.116;2022-09-01T04:39:32;10.23;;;9.23;;
7573;SDS011;3828;48.922;9.116;2022-09-01T04:42:00;10.97;;;9.97;;
7573;SDS011;3828;48.922;9.116;2022-09-01T04:44:28;11.77;;;10.60;;
7573;SDS011;3828;48.922;9.116;2022-09-01T04:46:55;11.40;;;10.40;;
7573;SDS011;3828;48.922;9.116;2022-09-01T04:49:23;11.20;;;10.10;;
7573;SDS011;3828;48.922;9.116;2022-09-01T04:51:51;10.57;;;9.67;;
7573;SDS011;3828;48.922;9.116;2022-09-01T04:54:19;10.87;;;9.87;;
7573;SDS011;3828;48.922;9.116;2022-09-01T04:56:48;17.30;;;12.87;;
7573;SDS011;3828;48.922;9.116;2022-09-01T04:59:17;12.47;;;11.30;;
7573;SDS011;3828;48.922;9.116;2022-09-01T05:01:45;12.03;;;10.43;;
7573;SDS011;3828;48.922;9.116;2022-09-01T05:04:19;14.93;;;13.43;;
7573;SDS011;3828;48.922;9.116;2022-09-01T05:06:50;15.43;;;12.77;;
7573;SDS011;3828;48.922;9.116;2022-09-01T05:09:24;12.97;;;11.77;;
7573;SDS011;3828;48.922;9.116;2022-09-01T05:11:52;15.50;;;13.57;;
7573;SDS011;3828;48.922;9.116;2022-09-01T05:14:21;13.07;;;11.83;;
7573;SDS011;3828;48.922;9.116;2022-09-01T05:16:50;14.63;;;13.30;;
7573;SDS011;3828;48.922;9.116;2022-09-01T05:19:22;13.70;;;12.30;;
7573;SDS011;3828;48.922;9.116;2022-09-01T05:21:54;13.13;;;11.83;;
7573;SDS011;3828;48.922;9.116;2022-09-01T05:24:21;12.93;;;11.80;;
7573;SDS011;3828;48.922;9.116;2022-09-01T05:26:54;14.80;;;12.90;;
7573;SDS011;3828;48.922;9.116;2022-09-01T05:29:21;16.90;;;14.17;;
7573;SDS011;3828;48.922;9.116;2022-09-01T05:31:51;14.33;;;12.93;;
7573;SDS011;3828;48.922;9.116;2022-09-01T05:34:19;15.00;;;13.40;;
7573;SDS011;3828;48.922;9.116;2022-09-01T05:36:51;15.90;;;14.23;;
7573;SDS011;3828;48.922;9.116;2022-09-01T05:39:36;15.50;;;13.60;;
7573;SDS011;3828;48.922;9.116;2022-09-01T05:42:03;16.23;;;14.53;;
7573;SDS011;3828;48.922;9.116;2022-09-01T05:44:32;16.73;;;15.00;;
7573;SDS011;3828;48.922;9.116;2022-09-01T05:47:09;18.30;;;14.37;;
7573;SDS011;3828;48.922;9.116;2022-09-01T05:49:50;17.43;;;15.63;;
7573;SDS011;3828;48.922;9.116;2022-09-01T05:52:19;16.80;;;15.00;;
7573;SDS011;3828;48.922;9.116;2022-09-01T05:54:49;18.67;;;16.17;;
7573;SDS011;3828;48.922;9.116;2022-09-01T05:57:16;16.33;;;14.67;;
7573;SDS011;3828;48.922;9.116;2022-09-01T05:59:46;15.93;;;14.30;;
7573;SDS011;3828;48.922;9.116;2022-09-01T06:02:17;19.87;;;15.67;;
7573;SDS011;3828;48.922;9.116;2022-09-01T06:04:45;16.30;;;14.60;;
7573;SDS011;3828;48.922;9.116;2022-09-01T06:07:13;16.50;;;14.77;;
7573;SDS011;3828;48.922;9.116;2022-09-01T06:09:44;16.20;;;14.50;;
7573;SDS011;3828;48.922;9.116;2022-09-01T06:12:13;16.73;;;14.93;;
7573;SDS011;3828;48.922;9.116;2022-09-01T06:14:51;16.30;;;14.47;;
7573;SDS011;3828;48.922;9.116;2022-09-01T06:17:19;17.17;;;15.30;;
7573;SDS011;3828;48.922;9.116;2022-09-01T06:19:48;15.23;;;13.73;;
7573;SDS011;3828;48.922;9.116;2022-09-01T06:22:16;16.67;;;14.93;;
7573;SDS011;3828;48.922;9.116;2022-09-01T06:24:45;16.50;;;14.60;;
7573;SDS011;3828;48.922;9.116;2022-09-01T06:27:13;16.37;;;13.90;;
7573;SDS011;3828;48.922;9.116;2022-09-01T06:29:42;16.10;;;14.43;;
7573;SDS011;3828;48.922;9.116;2022-09-01T06:32:09;14.57;;;13.07;;
7573;SDS011;3828;48.922;9.116;2022-09-01T06:37:06;16.30;;;13.87;;
7573;SDS011;3828;48.922;9.116;2022-09-01T06:39:33;13.67;;;12.27;;
7573;SDS011;3828;48.922;9.116;2022-09-01T06:42:02;15.23;;;13.63;;
7573;SDS011;3828;48.922;9.116;2022-09-01T06:44:28;16.13;;;14.37;;
7573;SDS011;3828;48.922;9.116;2022-09-01T06:46:56;15.97;;;14.27;;
7573;SDS011;3828;48.922;9.116;2022-09-01T06:49:24;15.40;;;13.17;;
7573;SDS011;3828;48.922;9.116;2022-09-01T06:51:56;14.03;;;12.63;;
7573;SDS011;3828;48.922;9.116;2022-09-01T06:54:23;16.57;;;13.23;;
7573;SDS011;3828;48.922;9.116;2022-09-01T06:56:50;14.00;;;12.70;;
7573;SDS011;3828;48.922;9.116;2022-09-01T06:59:19;12.40;;;11.23;;
7573;SDS011;3828;48.922;9.116;2022-09-01T07:01:47;12.93;;;11.60;;
7573;SDS011;3828;48.922;9.116;2022-09-01T07:04:15;11.47;;;10.07;;
7573;SDS011;3828;48.922;9.116;2022-09-01T07:06:44;12.43;;;11.27;;
7573;SDS011;3828;48.922;9.116;2022-09-01T07:09:16;11.30;;;10.17;;
7573;SDS011;3828;48.922;9.116;2022-09-01T07:11:43;11.27;;;10.17;;
7573;SDS011;3828;48.922;9.116;2022-09-01T07:14:10;11.33;;;10.13;;
7573;SDS011;3828;48.922;9.116;2022-09-01T07:16:42;10.00;;;9.10;;
7573;SDS011;3828;48.922;9.116;2022-09-01T07:19:11;9.10;;;8.20;;
7573;SDS011;3828;48.922;9.116;2022-09-01T07:21:39;8.37;;;7.57;;
7573;SDS011;3828;48.922;9.116;2022-09-01T07:24:07;9.57;;;7.90;;
7573;SDS011;3828;48.922;9.116;2022-09-01T07:26:35;8.43;;;7.73;;
7573;SDS011;3828;48.922;9.116;2022-09-01T07:29:05;7.60;;;6.80;;
7573;SDS011;3828;48.922;9.116;2022-09-01T07:31:34;6.50;;;5.83;;
7573;SDS011;3828;48.922;9.116;2022-09-01T07:34:04;6.10;;;5.30;;
7573;SDS011;3828;48.922;9.116;2022-09-01T07:36:36;6.23;;;5.33;;
7573;SDS011;3828;48.922;9.116;2022-09-01T07:39:04;5.73;;;5.03;;
7573;SDS011;3828;48.922;9.116;2022-09-01T07:41:31;5.50;;;5.00;;
7573;SDS011;3828;48.922;9.116;2022-09-01T07:43:59;5.20;;;4.67;;
7573;SDS011;3828;48.922;9.116;2022-09-01T07:46:27;5.77;;;4.60;;
7573;SDS011;3828;48.922;9.116;2022-09-01T07:48:56;5.17;;;4.73;;
7573;SDS011;3828;48.922;9.116;2022-09-01T07:51:24;5.57;;;5.07;;
7573;SDS011;3828;48.922;9.116;2022-09-01T07:53:51;4.50;;;4.10;;
7573;SDS011;3828;48.922;9.116;2022-09-01T07:56:19;5.83;;;5.30;;
7573;SDS011;3828;48.922;9.116;2022-09-01T07:58:47;6.10;;;5.53;;
7573;SDS011;3828;48.922;9.116;2022-09-01T08:01:16;5.60;;;5.10;;
7573;SDS011;3828;48.922;9.116;2022-09-01T08:03:45;5.10;;;4.67;;
7573;SDS011;3828;48.922;9.116;2022-09-01T08:06:16;6.23;;;5.63;;
7573;SDS011;3828;48.922;9.116;2022-09-01T08:08:46;6.37;;;5.63;;
7573;SDS011;3828;48.922;9.116;2022-09-01T08:11:16;5.43;;;4.93;;
7573;SDS011;3828;48.922;9.116;2022-09-01T08:13:45;4.50;;;4.17;;
7573;SDS011;3828;48.922;9.116;2022-09-01T08:16:12;5.20;;;4.80;;
7573;SDS011;3828;48.922;9.116;2022-09-01T08:18:40;4.80;;;4.40;;
7573;SDS011;3828;48.922;9.116;2022-09-01T08:21:07;5.10;;;4.70;;
7573;SDS011;3828;48.922;9.116;2022-09-01T08:23:35;6.17;;;4.60;;
7573;SDS011;3828;48.922;9.116;2022-09-01T08:26:05;4.70;;;4.40;;
7573;SDS011;3828;48.922;9.116;2022-09-01T08:28:33;5.40;;;4.97;;
7573;SDS011;3828;48.922;9.116;2022-09-01T08:31:04;5.80;;;5.30;;
7573;SDS011;3828;48.922;9.116;2022-09-01T08:33:31;6.30;;;5.80;;
7573;SDS011;3828;48.922;9.116;2022-09-01T08:35:59;5.20;;;4.80;;
7573;SDS011;3828;48.922;9.116;2022-09-01T08:38:27;5.50;;;5.00;;
7573;SDS011;3828;48.922;9.116;2022-09-01T08:40:54;6.30;;;5.80;;
7573;SDS011;3828;48.922;9.116;2022-09-01T08:43:24;7.07;;;5.97;;
7573;SDS011;3828;48.922;9.116;2022-09-01T08:46:01;5.60;;;5.10;;
7573;SDS011;3828;48.922;9.116;2022-09-01T08:48:36;6.60;;;6.00;;
7573;SDS011;3828;48.922;9.116;2022-09-01T08:51:07;5.87;;;5.37;;
7573;SDS011;3828;48.922;9.116;2022-09-01T08:53:42;6.03;;;5.47;;
7573;SDS011;3828;48.922;9.116;2022-09-01T08:56:14;6.77;;;6.07;;
7573;SDS011;3828;48.922;9.116;2022-09-01T08:58:45;5.07;;;4.67;;
7573;SDS011;3828;48.922;9.116;2022-09-01T09:01:14;6.00;;;5.50;;
7573;SDS011;3828;48.922;9.116;2022-09-01T09:03:47;5.70;;;5.27;;
7573;SDS011;3828;48.922;9.116;2022-09-01T09:06:27;5.30;;;4.90;;
7573;SDS011;3828;48.922;9.116;2022-09-01T09:09:02;5.20;;;4.77;;
7573;SDS011;3828;48.922;9.116;2022-09-01T09:17:21;5.40;;;4.90;;
7573;SDS011;3828;48.922;9.116;2022-09-01T09:19:52;5.20;;;4.80;;
7573;SDS011;3828;48.922;9.116;2022-09-01T09:22:19;6.30;;;5.70;;
7573;SDS011;3828;48.922;9.116;2022-09-01T09:24:47;5.20;;;4.70;;
7573;SDS011;3828;48.922;9.116;2022-09-01T09:27:20;5.00;;;4.60;;
7573;SDS011;3828;48.922;9.116;2022-09-01T09:29:50;4.77;;;4.37;;
7573;SDS011;3828;48.922;9.116;2022-09-01T09:32:19;5.50;;;5.00;;
7573;SDS011;3828;48.922;9.116;2022-09-01T09:34:47;4.93;;;4.53;;
7573;SDS011;3828;48.922;9.116;2022-09-01T09:37:21;4.73;;;4.33;;
7573;SDS011;3828;48.922;9.116;2022-09-01T09:40:00;5.40;;;4.90;;
7573;SDS011;3828;48.922;9.116;2022-09-01T09:42:31;5.77;;;4.53;;
7573;SDS011;3828;48.922;9.116;2022-09-01T09:44:59;4.60;;;4.20;;
7573;SDS011;3828;48.922;9.116;2022-09-01T09:47:35;4.43;;;4.07;;
7573;SDS011;3828;48.922;9.116;2022-09-01T09:50:16;5.00;;;4.60;;
7573;SDS011;3828;48.922;9.116;2022-09-01T09:52:46;4.53;;;4.17;;
7573;SDS011;3828;48.922;9.116;2022-09-01T09:55:20;4.93;;;4.53;;
7573;SDS011;3828;48.922;9.116;2022-09-01T09:57:50;4.70;;;4.30;;
7573;SDS011;3828;48.922;9.116;2022-09-01T10:00:23;4.33;;;4.00;;
7573;SDS011;3828;48.922;9.116;2022-09-01T10:02:52;3.70;;;3.40;;
7573;SDS011;3828;48.922;9.116;2022-09-01T10:05:23;5.00;;;4.50;;
7573;SDS011;3828;48.922;9.116;2022-09-01T10:07:59;4.23;;;3.83;;
7573;SDS011;3828;48.922;9.116;2022-09-01T10:10:28;4.20;;;3.80;;
7573;SDS011;3828;48.922;9.116;2022-09-01T10:12:57;4.50;;;4.20;;
7573;SDS011;3828;48.922;9.116;2022-09-01T10:15:27;5.37;;;4.67;;
7573;SDS011;3828;48.922;9.116;2022-09-01T10:17:57;5.43;;;3.90;;
7573;SDS011;3828;48.922;9.116;2022-09-01T10:20:30;4.60;;;3.40;;
7573;SDS011;3828;48.922;9.116;2022-09-01T10:22:58;3.97;;;3.67;;
7573;SDS011;3828;48.922;9.116;2022-09-01T10:25:27;3.97;;;3.43;;
7573;SDS011;3828;48.922;9.116;2022-09-01T10:27:58;3.70;;;2.83;;
7573;SDS011;3828;48.922;9.116;2022-09-01T10:30:33;3.90;;;3.60;;
7573;SDS011;3828;48.922;9.116;2022-09-01T10:33:06;3.17;;;2.90;;
7573;SDS011;3828;48.922;9.116;2022-09-01T10:35:34;3.53;;;3.23;;
7573;SDS011;3828;48.922;9.116;2022-09-01T10:38:04;3.60;;;3.30;;
7573;SDS011;3828;48.922;9.116;2022-09-01T10:40:33;3.47;;;2.80;;
7573;SDS011;3828;48.922;9.116;2022-09-01T10:55:42;3.70;;;3.33;;
7573;SDS011;3828;48.922;9.116;2022-09-01T10:58:24;3.03;;;2.83;;
7573;SDS011;3828;48.922;9.116;2022-09-01T11:01:00;3.00;;;2.80;;
7573;SDS011;3828;48.922;9.116;2022-09-01T11:06:32;3.23;;;3.00;;
7573;SDS011;3828;48.922;9.116;2022-09-01T11:09:15;2.87;;;2.67;;
7573;SDS011;3828;48.922;9.116;2022-09-01T11:11:48;2.87;;;2.67;;
7573;SDS011;3828;48.922;9.116;2022-09-01T11:14:25;2.93;;;2.73;;
7573;SDS011;3828;48.922;9.116;2022-09-01T11:17:11;3.27;;;2.90;;
7573;SDS011;3828;48.922;9.116;2022-09-01T11:19:42;3.03;;;2.83;;
7573;SDS011;3828;48.922;9.116;2022-09-01T11:22:17;2.93;;;2.73;;
7573;SDS011;3828;48.922;9.116;2022-09-01T11:24:51;2.77;;;2.57;;
7573;SDS011;3828;48.922;9.116;2022-09-01T11:30:24;3.03;;;2.70;;
7573;SDS011;3828;48.922;9.116;2022-09-01T11:33:02;2.70;;;2.43;;
7573;SDS011;3828;48.922;9.116;2022-09-01T11:35:38;3.03;;;2.73;;
7573;SDS011;3828;48.922;9.116;2022-09-01T11:38:05;2.47;;;2.27;;
7573;SDS011;3828;48.922;9.116;2022-09-01T11:40:34;3.30;;;2.53;;
7573;SDS011;3828;48.922;9.116;2022-09-01T11:43:04;2.53;;;2.33;;
7573;SDS011;3828;48.922;9.116;2022-09-01T11:45:35;2.33;;;2.23;;
7573;SDS011;3828;48.922;9.116;2022-09-01T11:48:10;2.57;;;2.37;;
7573;SDS011;3828;48.922;9.116;2022-09-01T11:50:40;2.60;;;2.27;;
7573;SDS011;3828;48.922;9.116;2022-09-01T11:53:09;2.80;;;2.60;;
7573;SDS011;3828;48.922;9.116;2022-09-01T11:55:40;2.43;;;2.23;;
7573;SDS011;3828;48.922;9.116;2022-09-01T11:58:10;2.10;;;2.00;;
7573;SDS011;3828;48.922;9.116;2022-09-01T12:00:39;2.40;;;2.07;;
7573;SDS011;3828;48.922;9.116;2022-09-01T12:03:17;2.87;;;2.67;;
7573;SDS011;3828;48.922;9.116;2022-09-01T12:05:46;3.10;;;2.33;;
7573;SDS011;3828;48.922;9.116;2022-09-01T12:08:18;2.20;;;2.10;;
7573;SDS011;3828;48.922;9.116;2022-09-01T12:10:45;2.90;;;1.90;;
7573;SDS011;3828;48.922;9.116;2022-09-01T12:13:18;2.53;;;2.30;;
7573;SDS011;3828;48.922;9.116;2022-09-01T12:15:51;1.83;;;1.73;;
7573;SDS011;3828;48.922;9.116;2022-09-01T12:18:20;2.20;;;2.10;;
7573;SDS011;3828;48.922;9.116;2022-09-01T12:20:52;2.13;;;2.00;;
7573;SDS011;3828;48.922;9.116;2022-09-01T12:23:22;2.03;;;1.93;;
7573;SDS011;3828;48.922;9.116;2022-09-01T12:25:51;4.50;;;2.30;;
7573;SDS011;3828;48.922;9.116;2022-09-01T12:28:22;2.37;;;2.17;;
7573;SDS011;3828;48.922;9.116;2022-09-01T12:30:50;2.83;;;2.27;;
7573;SDS011;3828;48.922;9.116;2022-09-01T12:33:19;1.70;;;1.60;;
7573;SDS011;3828;48.922;9.116;2022-09-01T12:35:46;2.50;;;2.30;;
7573;SDS011;3828;48.922;9.116;2022-09-01T12:38:24;2.30;;;2.10;;
7573;SDS011;3828;48.922;9.116;2022-09-01T12:40:54;2.23;;;2.13;;
7573;SDS011;3828;48.922;9.116;2022-09-01T12:43:31;2.60;;;2.40;;
7573;SDS011;3828;48.922;9.116;2022-09-01T12:46:01;2.80;;;2.60;;
7573;SDS011;3828;48.922;9.116;2022-09-01T12:48:29;2.93;;;2.73;;
7573;SDS011;3828;48.922;9.116;2022-09-01T12:50:58;2.53;;;2.33;;
7573;SDS011;3828;48.922;9.116;2022-09-01T12:53:27;2.80;;;2.60;;
7573;SDS011;3828;48.922;9.116;2022-09-01T12:56:03;2.97;;;2.77;;
7573;SDS011;3828;48.922;9.116;2022-09-01T12:58:41;2.77;;;2.57;;
7573;SDS011;3828;48.922;9.116;2022-09-01T13:01:22;3.07;;;2.43;;
7573;SDS011;3828;48.922;9.116;2022-09-01T13:04:12;2.77;;;2.27;;
7573;SDS011;3828;48.922;9.116;2022-09-01T13:06:41;3.10;;;2.30;;
7573;SDS011;3828;48.922;9.116;2022-09-01T13:09:08;1.57;;;1.47;;
7573;SDS011;3828;48.922;9.116;2022-09-01T13:11:35;2.47;;;1.87;;
7573;SDS011;3828;48.922;9.116;2022-09-01T13:14:03;2.23;;;2.00;;
7573;SDS011;3828;48.922;9.116;2022-09-01T13:16:30;2.00;;;1.90;;
7573;SDS011;3828;48.922;9.116;2022-09-01T13:18:57;2.57;;;2.43;;
7573;SDS011;3828;48.922;9.116;2022-09-01T13:21:23;2.43;;;2.30;;
7573;SDS011;3828;48.922;9.116;2022-09-01T13:23:51;3.23;;;2.13;;
7573;SDS011;3828;48.922;9.116;2022-09-01T13:26:18;2.33;;;2.23;;
7573;SDS011;3828;48.922;9.116;2022-09-01T13:28:45;2.93;;;2.60;;
7573;SDS011;3828;48.922;9.116;2022-09-01T13:31:13;3.43;;;2.90;;
7573;SDS011;3828;48.922;9.116;2022-09-01T13:33:40;2.60;;;2.40;;
7573;SDS011;3828;48.922;9.116;2022-09-01T13:36:07;2.53;;;2.33;;
7573;SDS011;3828;48.922;9.116;2022-09-01T13:38:33;2.00;;;1.90;;
7573;SDS011;3828;48.922;9.116;2022-09-01T13:41:00;2.37;;;2.00;;
7573;SDS011;3828;48.922;9.116;2022-09-01T13:43:27;2.90;;;2.10;;
7573;SDS011;3828;48.922;9.116;2022-09-01T13:45:55;3.17;;;2.20;;
7573;SDS011;3828;48.922;9.116;2022-09-01T13:48:23;2.17;;;2.07;;
7573;SDS011;3828;48.922;9.116;2022-09-01T13:50:52;2.37;;;2.27;;
7573;SDS011;3828;48.922;9.116;2022-09-01T13:53:19;2.43;;;2.20;;
7573;SDS011;3828;48.922;9.116;2022-09-01T13:55:47;3.50;;;2.37;;
7573;SDS011;3828;48.922;9.116;2022-09-01T13:58:14;2.47;;;2.27;;
7573;SDS011;3828;48.922;9.116;2022-09-01T14:00:42;2.40;;;2.20;;
7573;SDS011;3828;48.922;9.116;2022-09-01T14:03:12;2.13;;;1.97;;
7573;SDS011;3828;48.922;9.116;2022-09-01T14:05:44;2.80;;;2.60;;
7573;SDS011;3828;48.922;9.116;2022-09-01T14:08:12;2.53;;;2.33;;
7573;SDS011;3828;48.922;9.116;2022-09-01T14:10:41;2.37;;;2.17;;
7573;SDS011;3828;48.922;9.116;2022-09-01T14:13:09;1.83;;;1.73;;
7573;SDS011;3828;48.922;9.116;2022-09-01T14:15:39;2.00;;;1.80;;
7573;SDS011;3828;48.922;9.116;2022-09-01T14:18:06;1.83;;;1.73;;
7573;SDS011;3828;48.922;9.116;2022-09-01T14:20:34;3.00;;;2.30;;
7573;SDS011;3828;48.922;9.116;2022-09-01T14:23:05;2.03;;;1.93;;
7573;SDS011;3828;48.922;9.116;2022-09-01T14:25:35;2.37;;;2.17;;
7573;SDS011;3828;48.922;9.116;2022-09-01T14:28:02;3.80;;;2.17;;
7573;SDS011;3828;48.922;9.116;2022-09-01T14:30:30;2.53;;;2.33;;
7573;SDS011;3828;48.922;9.116;2022-09-01T14:32:58;2.47;;;2.37;;
7573;SDS011;3828;48.922;9.116;2022-09-01T14:35:25;2.23;;;2.10;;
7573;SDS011;3828;48.922;9.116;2022-09-01T14:37:53;2.13;;;2.00;;
7573;SDS011;3828;48.922;9.116;2022-09-01T14:40:24;1.90;;;1.80;;
7573;SDS011;3828;48.922;9.116;2022-09-01T14:42:53;2.20;;;2.00;;
7573;SDS011;3828;48.922;9.116;2022-09-01T14:45:21;2.47;;;1.97;;
7573;SDS011;3828;48.922;9.116;2022-09-01T14:47:50;2.17;;;2.00;;
7573;SDS011;3828;48.922;9.116;2022-09-01T14:50:18;2.37;;;2.17;;
7573;SDS011;3828;48.922;9.116;2022-09-01T14:52:47;1.90;;;1.80;;
7573;SDS011;3828;48.922;9.116;2022-09-01T14:55:16;2.27;;;2.07;;
7573;SDS011;3828;48.922;9.116;2022-09-01T14:57:44;2.33;;;2.23;;
7573;SDS011;3828;48.922;9.116;2022-09-01T15:00:11;3.17;;;2.00;;
7573;SDS011;3828;48.922;9.116;2022-09-01T15:02:39;2.37;;;2.23;;
7573;SDS011;3828;48.922;9.116;2022-09-01T15:05:08;2.63;;;2.03;;
7573;SDS011;3828;48.922;9.116;2022-09-01T15:07:36;2.60;;;2.40;;
7573;SDS011;3828;48.922;9.116;2022-09-01T15:10:04;2.23;;;2.03;;
7573;SDS011;3828;48.922;9.116;2022-09-01T15:12:35;2.60;;;2.10;;
7573;SDS011;3828;48.922;9.116;2022-09-01T15:15:05;3.03;;;1.90;;
7573;SDS011;3828;48.922;9.116;2022-09-01T15:17:33;2.13;;;2.03;;
7573;SDS011;3828;48.922;9.116;2022-09-01T15:20:03;2.10;;;2.00;;
7573;SDS011;3828;48.922;9.116;2022-09-01T15:22:45;1.67;;;1.57;;
7573;SDS011;3828;48.922;9.116;2022-09-01T15:25:13;2.13;;;2.00;;
7573;SDS011;3828;48.922;9.116;2022-09-01T15:27:40;2.60;;;2.40;;
7573;SDS011;3828;48.922;9.116;2022-09-01T15:30:09;2.40;;;2.20;;
7573;SDS011;3828;48.922;9.116;2022-09-01T15:32:49;2.03;;;1.93;;
7573;SDS011;3828;48.922;9.116;2022-09-01T15:35:18;3.30;;;1.97;;
7573;SDS011;3828;48.922;9.116;2022-09-01T15:37:56;2.50;;;2.20;;
7573;SDS011;3828;48.922;9.116;2022-09-01T15:40:23;2.53;;;1.97;;
7573;SDS011;3828;48.922;9.116;2022-09-01T15:42:50;3.07;;;1.80;;
7573;SDS011;3828;48.922;9.116;2022-09-01T15:45:21;4.10;;;2.47;;
7573;SDS011;3828;48.922;9.116;2022-09-01T15:47:49;2.17;;;1.97;;
7573;SDS011;3828;48.922;9.116;2022-09-01T15:50:17;2.20;;;2.10;;
7573;SDS011;3828;48.922;9.116;2022-09-01T15:52:47;2.77;;;2.53;;
7573;SDS011;3828;48.922;9.116;2022-09-01T15:55:16;2.70;;;2.37;;
7573;SDS011;3828;48.922;9.116;2022-09-01T15:57:43;2.37;;;2.17;;
7573;SDS011;3828;48.922;9.116;2022-09-01T16:00:11;2.67;;;2.43;;